sensor_id;sensor_type;location;lat;lon;timestamp;P1;durP1;ratioP1;P2;durP2;ratioP2
17494;SDS011;8864;51.970;4.614;2023-08-24T00:00:34;0.90;;;0.70;;
17494;SDS011;8864;51.970;4.614;2023-08-24T00:03:03;1.65;;;0.60;;
17494;SDS011;8864;51.970;4.614;2023-08-24T00:05:32;0.93;;;0.60;;
17494;SDS011;8864;51.970;4.614;2023-08-24T00:08:00;1.45;;;0.80;;
17494;SDS011;8864;51.970;4.614;2023-08-24T00:10:26;1.10;;;0.68;;
17494;SDS011;8864;51.970;4.614;2023-08-24T00:12:53;1.00;;;0.73;;
17494;SDS011;8864;51.970;4.614;2023-08-24T00:15:22;0.98;;;0.80;;
17494;SDS011;8864;51.970;4.614;2023-08-24T00:17:49;0.93;;;0.80;;
17494;SDS011;8864;51.970;4.614;2023-08-24T00:20:16;1.40;;;0.70;;
17494;SDS011;8864;51.970;4.614;2023-08-24T00:22:43;1.70;;;0.90;;
17494;SDS011;8864;51.970;4.614;2023-08-24T00:25:09;0.95;;;0.80;;
17494;SDS011;8864;51.970;4.614;2023-08-24T00:27:36;1.27;;;0.70;;
17494;SDS011;8864;51.970;4.614;2023-08-24T00:30:04;0.85;;;0.70;;
17494;SDS011;8864;51.970;4.614;2023-08-24T00:32:34;0.80;;;0.80;;
17494;SDS011;8864;51.970;4.614;2023-08-24T00:35:01;1.05;;;0.60;;
17494;SDS011;8864;51.970;4.614;2023-08-24T00:37:29;0.73;;;0.60;;
17494;SDS011;8864;51.970;4.614;2023-08-24T00:39:56;1.58;;;0.60;;
17494;SDS011;8864;51.970;4.614;2023-08-24T00:42:23;2.05;;;0.80;;
17494;SDS011;8864;51.970;4.614;2023-08-24T00:44:50;0.52;;;0.50;;
17494;SDS011;8864;51.970;4.614;2023-08-24T00:47:17;0.60;;;0.60;;
17494;SDS011;8864;51.970;4.614;2023-08-24T00:49:45;0.65;;;0.50;;
17494;SDS011;8864;51.970;4.614;2023-08-24T00:52:12;1.52;;;0.70;;
17494;SDS011;8864;51.970;4.614;2023-08-24T00:54:40;0.57;;;0.50;;
17494;SDS011;8864;51.970;4.614;2023-08-24T00:57:07;0.73;;;0.73;;
17494;SDS011;8864;51.970;4.614;2023-08-24T00:59:35;1.23;;;0.80;;
17494;SDS011;8864;51.970;4.614;2023-08-24T01:02:02;2.28;;;0.77;;
17494;SDS011;8864;51.970;4.614;2023-08-24T01:04:29;0.63;;;0.63;;
17494;SDS011;8864;51.970;4.614;2023-08-24T01:06:57;0.60;;;0.60;;
17494;SDS011;8864;51.970;4.614;2023-08-24T01:09:24;0.70;;;0.60;;
17494;SDS011;8864;51.970;4.614;2023-08-24T01:11:54;1.83;;;0.73;;
17494;SDS011;8864;51.970;4.614;2023-08-24T01:14:30;2.28;;;0.80;;
17494;SDS011;8864;51.970;4.614;2023-08-24T01:17:07;0.60;;;0.50;;
17494;SDS011;8864;51.970;4.614;2023-08-24T01:19:41;0.95;;;0.75;;
17494;SDS011;8864;51.970;4.614;2023-08-24T01:22:17;1.98;;;0.90;;
17494;SDS011;8864;51.970;4.614;2023-08-24T01:24:53;0.98;;;0.50;;
17494;SDS011;8864;51.970;4.614;2023-08-24T01:27:35;2.17;;;0.82;;
17494;SDS011;8864;51.970;4.614;2023-08-24T01:30:03;1.00;;;0.65;;
17494;SDS011;8864;51.970;4.614;2023-08-24T01:32:31;1.73;;;0.70;;
17494;SDS011;8864;51.970;4.614;2023-08-24T01:34:59;1.10;;;0.80;;
17494;SDS011;8864;51.970;4.614;2023-08-24T01:37:27;2.38;;;0.60;;
17494;SDS011;8864;51.970;4.614;2023-08-24T01:39:56;2.22;;;1.00;;
17494;SDS011;8864;51.970;4.614;2023-08-24T01:42:35;1.08;;;0.68;;
17494;SDS011;8864;51.970;4.614;2023-08-24T01:45:20;0.85;;;0.75;;
17494;SDS011;8864;51.970;4.614;2023-08-24T01:47:50;1.52;;;0.60;;
17494;SDS011;8864;51.970;4.614;2023-08-24T01:50:20;1.20;;;0.70;;
17494;SDS011;8864;51.970;4.614;2023-08-24T01:52:47;1.23;;;0.70;;
17494;SDS011;8864;51.970;4.614;2023-08-24T01:55:17;1.20;;;0.70;;
17494;SDS011;8864;51.970;4.614;2023-08-24T01:57:45;1.17;;;0.70;;
17494;SDS011;8864;51.970;4.614;2023-08-24T02:00:12;1.67;;;0.70;;
17494;SDS011;8864;51.970;4.614;2023-08-24T02:02:41;0.60;;;0.57;;
17494;SDS011;8864;51.970;4.614;2023-08-24T02:05:10;0.90;;;0.68;;
17494;SDS011;8864;51.970;4.614;2023-08-24T02:07:38;1.30;;;0.70;;
17494;SDS011;8864;51.970;4.614;2023-08-24T02:10:06;0.90;;;0.65;;
17494;SDS011;8864;51.970;4.614;2023-08-24T02:12:33;0.60;;;0.60;;
17494;SDS011;8864;51.970;4.614;2023-08-24T02:15:01;0.60;;;0.60;;
17494;SDS011;8864;51.970;4.614;2023-08-24T02:17:29;0.50;;;0.40;;
17494;SDS011;8864;51.970;4.614;2023-08-24T02:19:55;0.70;;;0.60;;
17494;SDS011;8864;51.970;4.614;2023-08-24T02:22:22;1.13;;;0.70;;
17494;SDS011;8864;51.970;4.614;2023-08-24T02:24:49;0.63;;;0.63;;
17494;SDS011;8864;51.970;4.614;2023-08-24T02:27:17;0.95;;;0.77;;
17494;SDS011;8864;51.970;4.614;2023-08-24T02:29:43;1.20;;;0.77;;
17494;SDS011;8864;51.970;4.614;2023-08-24T02:32:12;0.88;;;0.60;;
17494;SDS011;8864;51.970;4.614;2023-08-24T02:34:38;0.82;;;0.52;;
17494;SDS011;8864;51.970;4.614;2023-08-24T02:37:06;0.63;;;0.50;;
17494;SDS011;8864;51.970;4.614;2023-08-24T02:39:33;1.02;;;0.65;;
17494;SDS011;8864;51.970;4.614;2023-08-24T02:42:01;0.70;;;0.60;;
17494;SDS011;8864;51.970;4.614;2023-08-24T02:44:28;0.73;;;0.60;;
17494;SDS011;8864;51.970;4.614;2023-08-24T02:46:56;0.98;;;0.60;;
17494;SDS011;8864;51.970;4.614;2023-08-24T02:49:24;0.70;;;0.70;;
17494;SDS011;8864;51.970;4.614;2023-08-24T02:51:51;1.00;;;0.70;;
17494;SDS011;8864;51.970;4.614;2023-08-24T02:54:18;0.68;;;0.65;;
17494;SDS011;8864;51.970;4.614;2023-08-24T02:56:45;0.80;;;0.70;;
17494;SDS011;8864;51.970;4.614;2023-08-24T02:59:12;1.63;;;0.80;;
17494;SDS011;8864;51.970;4.614;2023-08-24T03:01:39;1.05;;;0.80;;
17494;SDS011;8864;51.970;4.614;2023-08-24T03:04:06;0.73;;;0.70;;
17494;SDS011;8864;51.970;4.614;2023-08-24T03:06:34;0.60;;;0.60;;
17494;SDS011;8864;51.970;4.614;2023-08-24T03:09:01;0.50;;;0.50;;
17494;SDS011;8864;51.970;4.614;2023-08-24T03:11:29;1.00;;;0.63;;
17494;SDS011;8864;51.970;4.614;2023-08-24T03:13:56;0.75;;;0.70;;
17494;SDS011;8864;51.970;4.614;2023-08-24T03:16:23;0.70;;;0.60;;
17494;SDS011;8864;51.970;4.614;2023-08-24T03:18:49;1.05;;;0.73;;
17494;SDS011;8864;51.970;4.614;2023-08-24T03:21:16;0.98;;;0.68;;
17494;SDS011;8864;51.970;4.614;2023-08-24T03:23:45;1.60;;;0.68;;
17494;SDS011;8864;51.970;4.614;2023-08-24T03:26:11;1.58;;;0.75;;
17494;SDS011;8864;51.970;4.614;2023-08-24T03:28:38;1.48;;;0.60;;
17494;SDS011;8864;51.970;4.614;2023-08-24T03:31:06;0.93;;;0.70;;
17494;SDS011;8864;51.970;4.614;2023-08-24T03:33:33;1.20;;;0.60;;
17494;SDS011;8864;51.970;4.614;2023-08-24T03:36:00;1.15;;;0.70;;
17494;SDS011;8864;51.970;4.614;2023-08-24T03:38:28;0.93;;;0.70;;
17494;SDS011;8864;51.970;4.614;2023-08-24T03:41:00;1.90;;;0.70;;
17494;SDS011;8864;51.970;4.614;2023-08-24T03:43:28;0.73;;;0.63;;
17494;SDS011;8864;51.970;4.614;2023-08-24T03:45:55;0.95;;;0.70;;
17494;SDS011;8864;51.970;4.614;2023-08-24T03:48:22;1.75;;;0.80;;
17494;SDS011;8864;51.970;4.614;2023-08-24T03:50:49;2.45;;;0.75;;
17494;SDS011;8864;51.970;4.614;2023-08-24T03:53:16;0.77;;;0.70;;
17494;SDS011;8864;51.970;4.614;2023-08-24T03:55:46;1.08;;;0.80;;
17494;SDS011;8864;51.970;4.614;2023-08-24T03:58:15;1.45;;;0.80;;
17494;SDS011;8864;51.970;4.614;2023-08-24T04:00:42;0.77;;;0.77;;
17494;SDS011;8864;51.970;4.614;2023-08-24T04:03:10;1.20;;;0.88;;
17494;SDS011;8864;51.970;4.614;2023-08-24T04:05:36;1.23;;;0.70;;
17494;SDS011;8864;51.970;4.614;2023-08-24T04:08:03;2.10;;;0.88;;
17494;SDS011;8864;51.970;4.614;2023-08-24T04:10:31;1.23;;;0.77;;
17494;SDS011;8864;51.970;4.614;2023-08-24T04:12:58;1.02;;;0.90;;
17494;SDS011;8864;51.970;4.614;2023-08-24T04:15:26;1.63;;;1.00;;
17494;SDS011;8864;51.970;4.614;2023-08-24T04:17:53;0.98;;;0.80;;
17494;SDS011;8864;51.970;4.614;2023-08-24T04:20:20;2.22;;;0.98;;
17494;SDS011;8864;51.970;4.614;2023-08-24T04:22:47;1.48;;;1.10;;
17494;SDS011;8864;51.970;4.614;2023-08-24T04:25:13;1.27;;;0.90;;
17494;SDS011;8864;51.970;4.614;2023-08-24T04:27:40;1.83;;;0.80;;
17494;SDS011;8864;51.970;4.614;2023-08-24T04:30:08;1.85;;;0.80;;
17494;SDS011;8864;51.970;4.614;2023-08-24T04:32:38;0.82;;;0.70;;
17494;SDS011;8864;51.970;4.614;2023-08-24T04:35:05;1.25;;;0.73;;
17494;SDS011;8864;51.970;4.614;2023-08-24T04:37:33;1.05;;;0.70;;
17494;SDS011;8864;51.970;4.614;2023-08-24T04:40:00;1.17;;;0.80;;
17494;SDS011;8864;51.970;4.614;2023-08-24T04:42:29;2.80;;;0.90;;
17494;SDS011;8864;51.970;4.614;2023-08-24T04:44:56;1.38;;;0.88;;
17494;SDS011;8864;51.970;4.614;2023-08-24T04:47:23;1.15;;;0.80;;
17494;SDS011;8864;51.970;4.614;2023-08-24T04:49:51;0.75;;;0.60;;
17494;SDS011;8864;51.970;4.614;2023-08-24T04:52:18;1.35;;;0.75;;
17494;SDS011;8864;51.970;4.614;2023-08-24T04:54:45;0.85;;;0.70;;
17494;SDS011;8864;51.970;4.614;2023-08-24T04:57:12;1.50;;;0.82;;
17494;SDS011;8864;51.970;4.614;2023-08-24T04:59:39;2.13;;;0.73;;
17494;SDS011;8864;51.970;4.614;2023-08-24T05:02:06;1.48;;;0.80;;
17494;SDS011;8864;51.970;4.614;2023-08-24T05:04:33;1.50;;;0.80;;
17494;SDS011;8864;51.970;4.614;2023-08-24T05:07:01;1.58;;;0.80;;
17494;SDS011;8864;51.970;4.614;2023-08-24T05:09:28;1.02;;;0.80;;
17494;SDS011;8864;51.970;4.614;2023-08-24T05:11:55;0.73;;;0.70;;
17494;SDS011;8864;51.970;4.614;2023-08-24T05:14:21;1.40;;;0.70;;
17494;SDS011;8864;51.970;4.614;2023-08-24T05:16:48;1.35;;;0.70;;
17494;SDS011;8864;51.970;4.614;2023-08-24T05:19:15;1.30;;;0.80;;
17494;SDS011;8864;51.970;4.614;2023-08-24T05:21:42;1.30;;;0.88;;
17494;SDS011;8864;51.970;4.614;2023-08-24T05:24:10;0.90;;;0.60;;
17494;SDS011;8864;51.970;4.614;2023-08-24T05:26:37;1.30;;;0.90;;
17494;SDS011;8864;51.970;4.614;2023-08-24T05:29:04;0.70;;;0.70;;
17494;SDS011;8864;51.970;4.614;2023-08-24T05:31:31;1.05;;;0.70;;
17494;SDS011;8864;51.970;4.614;2023-08-24T05:33:58;0.70;;;0.70;;
17494;SDS011;8864;51.970;4.614;2023-08-24T05:36:25;1.65;;;0.90;;
17494;SDS011;8864;51.970;4.614;2023-08-24T05:38:52;2.05;;;0.90;;
17494;SDS011;8864;51.970;4.614;2023-08-24T05:47:11;1.13;;;0.77;;
17494;SDS011;8864;51.970;4.614;2023-08-24T05:49:38;1.73;;;0.80;;
17494;SDS011;8864;51.970;4.614;2023-08-24T05:52:05;1.08;;;0.60;;
17494;SDS011;8864;51.970;4.614;2023-08-24T05:54:31;0.93;;;0.70;;
17494;SDS011;8864;51.970;4.614;2023-08-24T05:56:58;1.85;;;0.82;;
17494;SDS011;8864;51.970;4.614;2023-08-24T05:59:26;1.92;;;0.93;;
17494;SDS011;8864;51.970;4.614;2023-08-24T06:01:53;1.13;;;0.80;;
17494;SDS011;8864;51.970;4.614;2023-08-24T06:04:21;1.45;;;0.88;;
17494;SDS011;8864;51.970;4.614;2023-08-24T06:06:48;0.77;;;0.75;;
17494;SDS011;8864;51.970;4.614;2023-08-24T06:09:15;0.50;;;0.50;;
17494;SDS011;8864;51.970;4.614;2023-08-24T06:11:42;1.27;;;0.68;;
17494;SDS011;8864;51.970;4.614;2023-08-24T06:14:08;1.05;;;0.73;;
17494;SDS011;8864;51.970;4.614;2023-08-24T06:16:35;1.25;;;0.70;;
17494;SDS011;8864;51.970;4.614;2023-08-24T06:19:02;0.88;;;0.73;;
17494;SDS011;8864;51.970;4.614;2023-08-24T06:21:31;1.48;;;0.80;;
17494;SDS011;8864;51.970;4.614;2023-08-24T06:23:57;0.98;;;0.68;;
17494;SDS011;8864;51.970;4.614;2023-08-24T06:26:26;1.05;;;0.70;;
17494;SDS011;8864;51.970;4.614;2023-08-24T06:28:53;1.02;;;0.80;;
17494;SDS011;8864;51.970;4.614;2023-08-24T06:31:20;2.17;;;0.90;;
17494;SDS011;8864;51.970;4.614;2023-08-24T06:33:48;1.17;;;0.80;;
17494;SDS011;8864;51.970;4.614;2023-08-24T06:36:15;0.85;;;0.70;;
17494;SDS011;8864;51.970;4.614;2023-08-24T06:38:44;0.98;;;0.60;;
17494;SDS011;8864;51.970;4.614;2023-08-24T06:41:10;0.95;;;0.90;;
17494;SDS011;8864;51.970;4.614;2023-08-24T06:43:37;0.88;;;0.80;;
17494;SDS011;8864;51.970;4.614;2023-08-24T06:46:05;1.23;;;0.57;;
17494;SDS011;8864;51.970;4.614;2023-08-24T06:48:33;0.80;;;0.80;;
17494;SDS011;8864;51.970;4.614;2023-08-24T06:51:00;1.08;;;0.70;;
17494;SDS011;8864;51.970;4.614;2023-08-24T06:53:27;1.50;;;0.95;;
17494;SDS011;8864;51.970;4.614;2023-08-24T06:55:56;0.77;;;0.60;;
17494;SDS011;8864;51.970;4.614;2023-08-24T06:58:23;0.77;;;0.60;;
17494;SDS011;8864;51.970;4.614;2023-08-24T07:00:50;0.75;;;0.60;;
17494;SDS011;8864;51.970;4.614;2023-08-24T07:03:17;1.65;;;0.60;;
17494;SDS011;8864;51.970;4.614;2023-08-24T07:05:44;1.00;;;0.90;;
17494;SDS011;8864;51.970;4.614;2023-08-24T07:08:12;0.95;;;0.88;;
17494;SDS011;8864;51.970;4.614;2023-08-24T07:10:39;0.60;;;0.52;;
17494;SDS011;8864;51.970;4.614;2023-08-24T07:13:08;0.80;;;0.70;;
17494;SDS011;8864;51.970;4.614;2023-08-24T07:15:35;0.68;;;0.68;;
17494;SDS011;8864;51.970;4.614;2023-08-24T07:18:02;0.50;;;0.50;;
17494;SDS011;8864;51.970;4.614;2023-08-24T07:20:31;2.65;;;0.80;;
17494;SDS011;8864;51.970;4.614;2023-08-24T07:22:59;0.73;;;0.60;;
17494;SDS011;8864;51.970;4.614;2023-08-24T07:25:26;0.88;;;0.70;;
17494;SDS011;8864;51.970;4.614;2023-08-24T07:27:54;0.73;;;0.55;;
17494;SDS011;8864;51.970;4.614;2023-08-24T07:30:24;1.20;;;0.80;;
17494;SDS011;8864;51.970;4.614;2023-08-24T07:32:52;0.77;;;0.60;;
17494;SDS011;8864;51.970;4.614;2023-08-24T07:35:19;0.65;;;0.50;;
17494;SDS011;8864;51.970;4.614;2023-08-24T07:37:49;0.70;;;0.68;;
17494;SDS011;8864;51.970;4.614;2023-08-24T07:40:16;1.10;;;0.63;;
17494;SDS011;8864;51.970;4.614;2023-08-24T07:42:43;0.82;;;0.60;;
17494;SDS011;8864;51.970;4.614;2023-08-24T07:45:10;1.02;;;0.63;;
17494;SDS011;8864;51.970;4.614;2023-08-24T07:47:40;0.63;;;0.63;;
17494;SDS011;8864;51.970;4.614;2023-08-24T07:50:07;1.15;;;0.80;;
17494;SDS011;8864;51.970;4.614;2023-08-24T07:52:36;0.70;;;0.70;;
17494;SDS011;8864;51.970;4.614;2023-08-24T07:55:04;1.17;;;0.88;;
17494;SDS011;8864;51.970;4.614;2023-08-24T07:57:32;0.70;;;0.63;;
17494;SDS011;8864;51.970;4.614;2023-08-24T07:59:59;1.20;;;0.80;;
17494;SDS011;8864;51.970;4.614;2023-08-24T08:02:26;1.63;;;0.70;;
17494;SDS011;8864;51.970;4.614;2023-08-24T08:04:57;0.77;;;0.77;;
17494;SDS011;8864;51.970;4.614;2023-08-24T08:07:24;0.77;;;0.52;;
17494;SDS011;8864;51.970;4.614;2023-08-24T08:09:51;0.70;;;0.60;;
17494;SDS011;8864;51.970;4.614;2023-08-24T08:12:18;0.88;;;0.82;;
17494;SDS011;8864;51.970;4.614;2023-08-24T08:14:45;0.77;;;0.77;;
17494;SDS011;8864;51.970;4.614;2023-08-24T08:17:12;1.00;;;0.90;;
17494;SDS011;8864;51.970;4.614;2023-08-24T08:19:39;0.70;;;0.70;;
17494;SDS011;8864;51.970;4.614;2023-08-24T08:22:07;0.70;;;0.70;;
17494;SDS011;8864;51.970;4.614;2023-08-24T08:24:34;1.00;;;0.90;;
17494;SDS011;8864;51.970;4.614;2023-08-24T08:27:01;0.82;;;0.60;;
17494;SDS011;8864;51.970;4.614;2023-08-24T08:29:28;0.60;;;0.60;;
17494;SDS011;8864;51.970;4.614;2023-08-24T08:31:55;0.57;;;0.57;;
17494;SDS011;8864;51.970;4.614;2023-08-24T08:34:22;1.20;;;0.77;;
17494;SDS011;8864;51.970;4.614;2023-08-24T08:36:49;0.88;;;0.73;;
17494;SDS011;8864;51.970;4.614;2023-08-24T08:39:17;1.60;;;0.77;;
17494;SDS011;8864;51.970;4.614;2023-08-24T08:41:44;1.13;;;0.85;;
17494;SDS011;8864;51.970;4.614;2023-08-24T08:44:12;1.00;;;0.60;;
17494;SDS011;8864;51.970;4.614;2023-08-24T08:46:41;0.80;;;0.60;;
17494;SDS011;8864;51.970;4.614;2023-08-24T08:49:09;0.70;;;0.60;;
17494;SDS011;8864;51.970;4.614;2023-08-24T08:51:36;0.70;;;0.65;;
17494;SDS011;8864;51.970;4.614;2023-08-24T08:54:03;0.82;;;0.70;;
17494;SDS011;8864;51.970;4.614;2023-08-24T08:56:32;0.70;;;0.70;;
17494;SDS011;8864;51.970;4.614;2023-08-24T08:59:00;0.80;;;0.80;;
17494;SDS011;8864;51.970;4.614;2023-08-24T09:01:29;1.23;;;0.85;;
17494;SDS011;8864;51.970;4.614;2023-08-24T09:03:56;0.73;;;0.70;;
17494;SDS011;8864;51.970;4.614;2023-08-24T09:06:23;0.85;;;0.70;;
17494;SDS011;8864;51.970;4.614;2023-08-24T09:08:50;0.70;;;0.70;;
17494;SDS011;8864;51.970;4.614;2023-08-24T09:11:19;1.42;;;0.77;;
17494;SDS011;8864;51.970;4.614;2023-08-24T09:13:48;0.90;;;0.80;;
17494;SDS011;8864;51.970;4.614;2023-08-24T09:16:15;1.00;;;0.70;;
17494;SDS011;8864;51.970;4.614;2023-08-24T09:18:43;1.50;;;0.70;;
17494;SDS011;8864;51.970;4.614;2023-08-24T09:21:13;1.00;;;0.75;;
17494;SDS011;8864;51.970;4.614;2023-08-24T09:23:43;0.88;;;0.80;;
17494;SDS011;8864;51.970;4.614;2023-08-24T09:26:11;0.90;;;0.80;;
17494;SDS011;8864;51.970;4.614;2023-08-24T09:28:38;0.90;;;0.68;;
17494;SDS011;8864;51.970;4.614;2023-08-24T09:31:11;0.73;;;0.70;;
17494;SDS011;8864;51.970;4.614;2023-08-24T09:33:38;0.82;;;0.73;;
17494;SDS011;8864;51.970;4.614;2023-08-24T09:36:05;0.93;;;0.70;;
17494;SDS011;8864;51.970;4.614;2023-08-24T09:38:33;0.98;;;0.70;;
17494;SDS011;8864;51.970;4.614;2023-08-24T09:41:01;0.80;;;0.80;;
17494;SDS011;8864;51.970;4.614;2023-08-24T09:43:29;0.88;;;0.70;;
17494;SDS011;8864;51.970;4.614;2023-08-24T09:45:56;0.60;;;0.60;;
17494;SDS011;8864;51.970;4.614;2023-08-24T09:48:25;1.60;;;0.80;;
17494;SDS011;8864;51.970;4.614;2023-08-24T09:50:52;1.02;;;0.75;;
17494;SDS011;8864;51.970;4.614;2023-08-24T09:53:20;4.32;;;0.80;;
17494;SDS011;8864;51.970;4.614;2023-08-24T09:55:49;1.10;;;0.90;;
17494;SDS011;8864;51.970;4.614;2023-08-24T09:58:21;0.75;;;0.75;;
17494;SDS011;8864;51.970;4.614;2023-08-24T10:00:49;1.02;;;0.82;;
17494;SDS011;8864;51.970;4.614;2023-08-24T10:03:17;1.38;;;0.93;;
17494;SDS011;8864;51.970;4.614;2023-08-24T10:05:48;2.05;;;0.80;;
17494;SDS011;8864;51.970;4.614;2023-08-24T10:08:19;1.05;;;0.82;;
17494;SDS011;8864;51.970;4.614;2023-08-24T10:10:48;0.93;;;0.88;;
17494;SDS011;8864;51.970;4.614;2023-08-24T10:13:22;0.90;;;0.80;;
17494;SDS011;8864;51.970;4.614;2023-08-24T10:15:55;1.80;;;0.80;;
17494;SDS011;8864;51.970;4.614;2023-08-24T10:18:22;0.80;;;0.80;;
17494;SDS011;8864;51.970;4.614;2023-08-24T10:20:52;0.88;;;0.80;;
17494;SDS011;8864;51.970;4.614;2023-08-24T10:23:20;0.82;;;0.70;;
17494;SDS011;8864;51.970;4.614;2023-08-24T10:25:48;0.82;;;0.77;;
17494;SDS011;8864;51.970;4.614;2023-08-24T10:28:18;1.20;;;0.90;;
17494;SDS011;8864;51.970;4.614;2023-08-24T10:30:46;1.27;;;0.90;;
17494;SDS011;8864;51.970;4.614;2023-08-24T10:33:14;1.10;;;0.77;;
17494;SDS011;8864;51.970;4.614;2023-08-24T10:35:42;0.77;;;0.65;;
17494;SDS011;8864;51.970;4.614;2023-08-24T10:38:23;1.38;;;0.80;;
17494;SDS011;8864;51.970;4.614;2023-08-24T10:40:51;1.05;;;0.70;;
17494;SDS011;8864;51.970;4.614;2023-08-24T10:43:19;1.10;;;0.80;;
17494;SDS011;8864;51.970;4.614;2023-08-24T10:45:55;1.58;;;0.80;;
17494;SDS011;8864;51.970;4.614;2023-08-24T10:48:23;1.20;;;0.90;;
17494;SDS011;8864;51.970;4.614;2023-08-24T10:53:46;1.00;;;0.82;;
17494;SDS011;8864;51.970;4.614;2023-08-24T10:56:14;0.80;;;0.77;;
17494;SDS011;8864;51.970;4.614;2023-08-24T10:58:44;0.82;;;0.82;;
17494;SDS011;8864;51.970;4.614;2023-08-24T11:01:15;0.98;;;0.80;;
17494;SDS011;8864;51.970;4.614;2023-08-24T11:03:48;1.00;;;0.80;;
17494;SDS011;8864;51.970;4.614;2023-08-24T11:06:19;1.65;;;1.00;;
17494;SDS011;8864;51.970;4.614;2023-08-24T11:08:49;0.93;;;0.70;;
17494;SDS011;8864;51.970;4.614;2023-08-24T11:11:31;0.80;;;0.80;;
17494;SDS011;8864;51.970;4.614;2023-08-24T11:14:14;1.00;;;0.80;;
17494;SDS011;8864;51.970;4.614;2023-08-24T11:16:42;1.15;;;0.93;;
17494;SDS011;8864;51.970;4.614;2023-08-24T11:19:10;1.17;;;0.90;;
17494;SDS011;8864;51.970;4.614;2023-08-24T11:21:38;1.15;;;0.90;;
17494;SDS011;8864;51.970;4.614;2023-08-24T11:24:07;0.90;;;0.90;;
17494;SDS011;8864;51.970;4.614;2023-08-24T11:26:38;0.80;;;0.80;;
17494;SDS011;8864;51.970;4.614;2023-08-24T11:29:07;1.33;;;1.00;;
17494;SDS011;8864;51.970;4.614;2023-08-24T11:31:34;0.98;;;0.80;;
17494;SDS011;8864;51.970;4.614;2023-08-24T11:34:02;0.90;;;0.80;;
17494;SDS011;8864;51.970;4.614;2023-08-24T11:36:29;1.58;;;0.82;;
17494;SDS011;8864;51.970;4.614;2023-08-24T11:39:13;1.15;;;0.90;;
17494;SDS011;8864;51.970;4.614;2023-08-24T11:41:42;1.10;;;0.85;;
17494;SDS011;8864;51.970;4.614;2023-08-24T11:44:09;0.90;;;0.80;;
17494;SDS011;8864;51.970;4.614;2023-08-24T11:46:37;0.82;;;0.80;;
17494;SDS011;8864;51.970;4.614;2023-08-24T11:49:04;1.55;;;0.98;;
17494;SDS011;8864;51.970;4.614;2023-08-24T11:51:32;0.73;;;0.73;;
17494;SDS011;8864;51.970;4.614;2023-08-24T11:53:59;1.92;;;0.80;;
17494;SDS011;8864;51.970;4.614;2023-08-24T11:56:28;1.38;;;0.85;;
17494;SDS011;8864;51.970;4.614;2023-08-24T11:58:55;1.30;;;1.02;;
17494;SDS011;8864;51.970;4.614;2023-08-24T12:01:22;1.05;;;0.90;;
17494;SDS011;8864;51.970;4.614;2023-08-24T12:03:49;1.58;;;1.05;;
17494;SDS011;8864;51.970;4.614;2023-08-24T12:06:16;1.10;;;1.00;;
17494;SDS011;8864;51.970;4.614;2023-08-24T12:08:45;0.93;;;0.80;;
17494;SDS011;8864;51.970;4.614;2023-08-24T12:11:13;1.67;;;1.13;;
17494;SDS011;8864;51.970;4.614;2023-08-24T12:13:45;1.10;;;0.90;;
17494;SDS011;8864;51.970;4.614;2023-08-24T12:16:15;1.17;;;1.08;;
17494;SDS011;8864;51.970;4.614;2023-08-24T12:18:50;1.42;;;0.88;;
17494;SDS011;8864;51.970;4.614;2023-08-24T12:21:18;1.20;;;0.90;;
17494;SDS011;8864;51.970;4.614;2023-08-24T12:23:54;1.17;;;0.90;;
17494;SDS011;8864;51.970;4.614;2023-08-24T12:26:22;1.23;;;0.93;;
17494;SDS011;8864;51.970;4.614;2023-08-24T12:28:50;1.52;;;0.82;;
17494;SDS011;8864;51.970;4.614;2023-08-24T12:31:18;0.80;;;0.80;;
17494;SDS011;8864;51.970;4.614;2023-08-24T12:33:45;1.50;;;1.00;;
17494;SDS011;8864;51.970;4.614;2023-08-24T12:36:23;1.30;;;0.80;;
17494;SDS011;8864;51.970;4.614;2023-08-24T12:38:50;1.42;;;1.17;;
17494;SDS011;8864;51.970;4.614;2023-08-24T12:41:17;1.27;;;0.90;;
17494;SDS011;8864;51.970;4.614;2023-08-24T12:43:44;1.25;;;1.00;;
17494;SDS011;8864;51.970;4.614;2023-08-24T12:46:12;1.30;;;1.05;;
17494;SDS011;8864;51.970;4.614;2023-08-24T12:48:39;1.75;;;1.00;;
17494;SDS011;8864;51.970;4.614;2023-08-24T12:51:06;1.00;;;0.80;;
17494;SDS011;8864;51.970;4.614;2023-08-24T12:53:33;1.55;;;0.95;;
17494;SDS011;8864;51.970;4.614;2023-08-24T12:56:00;1.05;;;0.95;;
17494;SDS011;8864;51.970;4.614;2023-08-24T12:58:27;1.33;;;1.00;;
17494;SDS011;8864;51.970;4.614;2023-08-24T13:00:54;1.35;;;1.05;;
17494;SDS011;8864;51.970;4.614;2023-08-24T13:03:22;0.82;;;0.80;;
17494;SDS011;8864;51.970;4.614;2023-08-24T13:05:49;1.35;;;1.00;;
17494;SDS011;8864;51.970;4.614;2023-08-24T13:08:16;1.45;;;1.10;;
17494;SDS011;8864;51.970;4.614;2023-08-24T13:10:43;0.93;;;0.82;;
17494;SDS011;8864;51.970;4.614;2023-08-24T13:13:09;1.00;;;0.82;;
17494;SDS011;8864;51.970;4.614;2023-08-24T13:15:37;0.80;;;0.80;;
17494;SDS011;8864;51.970;4.614;2023-08-24T13:18:04;1.08;;;0.85;;
17494;SDS011;8864;51.970;4.614;2023-08-24T13:20:32;1.65;;;1.10;;
17494;SDS011;8864;51.970;4.614;2023-08-24T13:22:59;1.27;;;0.93;;
17494;SDS011;8864;51.970;4.614;2023-08-24T13:25:26;0.93;;;0.80;;
17494;SDS011;8864;51.970;4.614;2023-08-24T13:27:53;1.13;;;1.02;;
17494;SDS011;8864;51.970;4.614;2023-08-24T13:30:21;1.25;;;0.98;;
17494;SDS011;8864;51.970;4.614;2023-08-24T13:32:48;1.23;;;1.10;;
17494;SDS011;8864;51.970;4.614;2023-08-24T13:35:15;0.80;;;0.80;;
17494;SDS011;8864;51.970;4.614;2023-08-24T13:37:43;1.27;;;0.80;;
17494;SDS011;8864;51.970;4.614;2023-08-24T13:40:10;1.17;;;0.90;;
17494;SDS011;8864;51.970;4.614;2023-08-24T13:42:37;1.10;;;1.00;;
17494;SDS011;8864;51.970;4.614;2023-08-24T13:45:05;0.90;;;0.90;;
17494;SDS011;8864;51.970;4.614;2023-08-24T13:47:32;1.92;;;1.20;;
17494;SDS011;8864;51.970;4.614;2023-08-24T13:49:59;1.08;;;0.98;;
17494;SDS011;8864;51.970;4.614;2023-08-24T13:52:26;1.42;;;0.95;;
17494;SDS011;8864;51.970;4.614;2023-08-24T13:54:55;0.70;;;0.70;;
17494;SDS011;8864;51.970;4.614;2023-08-24T13:57:21;1.10;;;0.75;;
17494;SDS011;8864;51.970;4.614;2023-08-24T13:59:48;1.38;;;1.08;;
17494;SDS011;8864;51.970;4.614;2023-08-24T14:02:15;1.60;;;0.93;;
17494;SDS011;8864;51.970;4.614;2023-08-24T14:04:42;1.30;;;1.20;;
17494;SDS011;8864;51.970;4.614;2023-08-24T14:07:09;1.23;;;1.10;;
17494;SDS011;8864;51.970;4.614;2023-08-24T14:09:36;1.08;;;0.93;;
17494;SDS011;8864;51.970;4.614;2023-08-24T14:12:04;1.08;;;0.90;;
17494;SDS011;8864;51.970;4.614;2023-08-24T14:14:32;1.27;;;1.00;;
17494;SDS011;8864;51.970;4.614;2023-08-24T14:16:58;1.20;;;0.98;;
17494;SDS011;8864;51.970;4.614;2023-08-24T14:19:25;1.15;;;1.02;;
17494;SDS011;8864;51.970;4.614;2023-08-24T14:21:52;1.55;;;1.20;;
17494;SDS011;8864;51.970;4.614;2023-08-24T14:24:19;1.10;;;1.00;;
17494;SDS011;8864;51.970;4.614;2023-08-24T14:26:46;1.52;;;1.20;;
17494;SDS011;8864;51.970;4.614;2023-08-24T14:29:15;1.38;;;1.20;;
17494;SDS011;8864;51.970;4.614;2023-08-24T14:31:42;1.00;;;0.90;;
17494;SDS011;8864;51.970;4.614;2023-08-24T14:34:09;1.88;;;1.20;;
17494;SDS011;8864;51.970;4.614;2023-08-24T14:36:36;1.13;;;1.00;;
17494;SDS011;8864;51.970;4.614;2023-08-24T14:39:03;1.73;;;1.17;;
17494;SDS011;8864;51.970;4.614;2023-08-24T14:41:30;1.13;;;0.90;;
17494;SDS011;8864;51.970;4.614;2023-08-24T14:43:57;1.17;;;0.95;;
17494;SDS011;8864;51.970;4.614;2023-08-24T14:46:25;1.20;;;1.10;;
17494;SDS011;8864;51.970;4.614;2023-08-24T14:48:52;1.88;;;1.10;;
17494;SDS011;8864;51.970;4.614;2023-08-24T14:51:19;1.38;;;1.08;;
17494;SDS011;8864;51.970;4.614;2023-08-24T14:53:46;1.42;;;1.20;;
17494;SDS011;8864;51.970;4.614;2023-08-24T14:56:12;1.67;;;1.20;;
17494;SDS011;8864;51.970;4.614;2023-08-24T14:58:40;1.95;;;1.20;;
17494;SDS011;8864;51.970;4.614;2023-08-24T15:01:07;1.65;;;1.15;;
17494;SDS011;8864;51.970;4.614;2023-08-24T15:03:35;1.75;;;1.08;;
17494;SDS011;8864;51.970;4.614;2023-08-24T15:06:02;1.45;;;1.15;;
17494;SDS011;8864;51.970;4.614;2023-08-24T15:08:31;1.20;;;1.10;;
17494;SDS011;8864;51.970;4.614;2023-08-24T15:10:59;1.38;;;1.10;;
17494;SDS011;8864;51.970;4.614;2023-08-24T15:13:27;3.13;;;1.17;;